createdAt,value
2019-04-20T00:01:05.339Z,79.40
2019-04-20T00:03:38.327Z,79.30
2019-04-20T00:06:03.635Z,79.30
2019-04-20T00:08:34.843Z,79.60
2019-04-20T00:11:08.776Z,79.60
2019-04-20T00:13:45.373Z,79.60
2019-04-20T00:16:04.154Z,79.70
2019-04-20T00:18:38.452Z,80.10
2019-04-20T00:21:24.878Z,80.30
2019-04-20T00:23:56.606Z,80.70
2019-04-20T00:27:00.651Z,81.10
2019-04-20T00:29:17.698Z,81.20
2019-04-20T00:31:47.785Z,81.40
2019-04-20T00:34:11.258Z,82.00
2019-04-20T00:36:30.742Z,82.30
2019-04-20T00:39:02.739Z,82.70
2019-04-20T00:41:29.734Z,82.60
2019-04-20T00:44:06.165Z,82.60
2019-04-20T00:46:35.714Z,82.80
2019-04-20T00:49:06.851Z,82.80
2019-04-20T00:51:45.539Z,82.90
2019-04-20T00:53:59.232Z,83.00
2019-04-20T00:56:28.837Z,83.00
2019-04-20T00:59:08.271Z,83.20
2019-04-20T01:01:47.470Z,83.50
2019-04-20T01:04:17.554Z,83.30
2019-04-20T01:06:50.077Z,83.60
2019-04-20T01:09:45.466Z,83.50
2019-04-20T01:12:18.168Z,83.50
2019-04-20T01:14:50.220Z,82.50
2019-04-20T01:17:14.706Z,82.60
2019-04-20T01:19:42.744Z,83.30
2019-04-20T01:22:15.875Z,83.30
2019-04-20T01:24:45.375Z,83.00
2019-04-20T01:27:23.741Z,82.50
2019-04-20T01:29:46.768Z,82.60
2019-04-20T01:32:20.968Z,82.30
2019-04-20T01:34:52.460Z,82.10
2019-04-20T01:37:26.177Z,82.20
2019-04-20T01:39:48.049Z,82.10
2019-04-20T01:42:10.960Z,81.70
2019-04-20T01:44:43.757Z,82.00
2019-04-20T01:47:11.411Z,82.10
2019-04-20T01:49:40.741Z,82.20
2019-04-20T01:52:17.320Z,82.20
2019-04-20T01:54:56.690Z,82.40
2019-04-20T01:57:29.995Z,82.30
2019-04-20T02:00:06.719Z,82.20
2019-04-20T02:02:44.860Z,83.80
2019-04-20T02:05:17.114Z,84.10
2019-04-20T02:07:45.444Z,84.10
2019-04-20T02:10:15.146Z,83.60
2019-04-20T02:12:49.009Z,84.30
2019-04-20T02:15:23.077Z,84.70
2019-04-20T02:18:20.519Z,85.10
2019-04-20T02:20:56.368Z,85.30
2019-04-20T02:23:31.795Z,85.20
2019-04-20T02:25:52.255Z,85.20
2019-04-20T02:28:37.416Z,85.60
2019-04-20T02:31:53.051Z,86.00
2019-04-20T02:34:19.848Z,86.00
2019-04-20T02:36:58.258Z,85.70
2019-04-20T02:42:34.047Z,85.80
2019-04-20T02:47:37.534Z,86.40
2019-04-20T02:52:50.596Z,86.90
2019-04-20T02:55:02.175Z,87.10
2019-04-20T02:57:33.930Z,86.90
2019-04-20T03:02:16.734Z,86.60
2019-04-20T03:04:37.097Z,87.10
2019-04-20T03:07:13.156Z,87.70
2019-04-20T03:10:06.065Z,88.00
2019-04-20T03:12:38.857Z,88.40
2019-04-20T03:15:04.623Z,89.40
2019-04-20T03:17:39.089Z,89.30
2019-04-20T03:20:03.325Z,89.40
2019-04-20T03:23:05.198Z,89.30
2019-04-20T03:25:17.913Z,89.40
2019-04-20T03:27:51.738Z,89.60
2019-04-20T03:31:33.350Z,90.10
2019-04-20T03:33:44.606Z,89.90
2019-04-20T03:36:10.318Z,90.20
2019-04-20T03:38:30.187Z,90.00
2019-04-20T03:40:48.278Z,90.30
2019-04-20T03:43:07.647Z,90.40
2019-04-20T03:45:45.956Z,90.50
2019-04-20T03:48:21.261Z,90.40
2019-04-20T03:50:56.442Z,90.50
2019-04-20T03:53:29.916Z,90.60
2019-04-20T03:56:35.162Z,91.00
2019-04-20T03:59:03.232Z,90.70
2019-04-20T04:02:07.469Z,90.60
2019-04-20T04:04:34.392Z,90.50
2019-04-20T04:06:49.535Z,90.50
2019-04-20T04:09:24.805Z,90.30
2019-04-20T04:11:55.064Z,90.30
2019-04-20T04:14:13.515Z,90.40
2019-04-20T04:16:47.392Z,90.30
2019-04-20T04:19:20.768Z,90.50
2019-04-20T04:22:15.838Z,90.40
2019-04-20T04:24:44.808Z,90.60
2019-04-20T04:27:15.096Z,90.80
2019-04-20T04:29:50.883Z,90.90
2019-04-20T04:32:49.936Z,90.80
2019-04-20T04:34:52.750Z,90.70
2019-04-20T04:37:45.890Z,90.60
2019-04-20T04:40:27.837Z,90.70
2019-04-20T04:42:46.818Z,90.80
2019-04-20T04:45:01.677Z,90.40
2019-04-20T04:47:26.319Z,90.10
2019-04-20T04:50:05.785Z,90.00
2019-04-20T04:52:32.061Z,89.60
2019-04-20T04:55:16.213Z,89.60
2019-04-20T04:57:28.505Z,89.30
2019-04-20T04:59:57.357Z,88.10
2019-04-20T05:02:32.516Z,87.40
2019-04-20T05:05:35.799Z,88.50
2019-04-20T05:08:01.926Z,88.70
2019-04-20T05:10:20.923Z,88.30
2019-04-20T05:12:51.284Z,87.60
2019-04-20T05:15:32.531Z,87.30
2019-04-20T05:18:05.814Z,85.80
2019-04-20T05:20:41.738Z,85.20
2019-04-20T05:23:31.922Z,85.80
2019-04-20T05:26:25.028Z,86.30
2019-04-20T05:28:48.620Z,84.60
2019-04-20T05:31:11.373Z,83.40
2019-04-20T05:34:20.305Z,83.00
2019-04-20T05:36:50.593Z,82.10
2019-04-20T05:39:29.805Z,82.00
2019-04-20T05:41:45.315Z,82.10
2019-04-20T05:44:20.982Z,80.80
2019-04-20T05:47:01.068Z,79.90
2019-04-20T05:49:31.196Z,80.00
2019-04-20T05:52:10.454Z,79.60
2019-04-20T05:54:32.540Z,79.40
2019-04-20T05:57:17.213Z,79.00
2019-04-20T05:59:47.068Z,78.10
2019-04-20T06:02:14.049Z,76.80
2019-04-20T06:04:54.572Z,75.10
2019-04-20T06:07:11.316Z,74.30
2019-04-20T06:09:42.947Z,74.10
2019-04-20T06:15:06.824Z,73.80
2019-04-20T06:17:53.170Z,72.60
2019-04-20T06:20:37.924Z,70.50
2019-04-20T06:23:11.962Z,69.30
2019-04-20T06:28:16.087Z,69.20
2019-04-20T06:30:45.284Z,68.00
2019-04-20T06:37:23.436Z,67.30
2019-04-20T06:40:29.307Z,66.40
2019-04-20T06:43:05.138Z,65.10
2019-04-20T06:46:05.085Z,64.90
2019-04-20T06:48:36.731Z,64.90
2019-04-20T06:50:53.859Z,64.10
2019-04-20T06:53:36.940Z,63.50
2019-04-20T06:56:33.646Z,64.90
2019-04-20T06:58:58.797Z,62.80
2019-04-20T07:01:25.089Z,64.10
2019-04-20T07:04:17.546Z,63.90
2019-04-20T07:06:45.267Z,62.60
2019-04-20T07:09:06.568Z,61.60
2019-04-20T07:11:35.855Z,61.60
2019-04-20T07:13:54.433Z,61.20
2019-04-20T07:16:53.167Z,61.10
2019-04-20T07:19:22.883Z,60.90
2019-04-20T07:22:23.114Z,58.90
2019-04-20T07:27:43.282Z,58.50
2019-04-20T07:30:29.655Z,58.50
2019-04-20T07:33:16.051Z,57.70
2019-04-20T07:35:44.866Z,57.80
2019-04-20T07:40:59.993Z,56.80
2019-04-20T07:44:03.418Z,57.20
2019-04-20T07:46:34.824Z,56.70
2019-04-20T07:49:12.715Z,57.40
2019-04-20T07:51:28.267Z,56.10
2019-04-20T07:54:37.513Z,55.90
2019-04-20T07:57:06.883Z,56.00
2019-04-20T07:59:52.796Z,55.80
2019-04-20T08:02:51.424Z,56.00
2019-04-20T08:05:15.502Z,56.60
2019-04-20T08:07:42.664Z,53.50
2019-04-20T08:10:36.538Z,54.60
2019-04-20T08:16:02.622Z,50.80
2019-04-20T08:18:56.624Z,50.30
2019-04-20T08:21:25.686Z,49.40
2019-04-20T08:23:54.158Z,50.20
2019-04-20T08:26:09.050Z,50.30
2019-04-20T08:29:14.693Z,49.00
2019-04-20T08:32:17.817Z,48.60
2019-04-20T08:34:56.011Z,48.30
2019-04-20T08:37:23.397Z,49.00
2019-04-20T08:42:28.602Z,49.10
2019-04-20T08:47:42.298Z,49.00
2019-04-20T08:50:48.493Z,49.20
2019-04-20T08:53:20.803Z,46.70
2019-04-20T08:55:46.525Z,46.70
2019-04-20T08:58:02.218Z,46.80
2019-04-20T09:00:35.964Z,46.60
2019-04-20T09:03:28.541Z,47.30
2019-04-20T09:06:31.283Z,47.80
2019-04-20T09:08:50.843Z,46.20
2019-04-20T09:11:38.486Z,44.20
2019-04-20T09:13:46.628Z,47.60
2019-04-20T09:16:10.973Z,45.50
2019-04-20T09:19:04.679Z,44.10
2019-04-20T09:21:38.755Z,45.00
2019-04-20T09:24:25.003Z,46.70
2019-04-20T09:26:50.581Z,45.70
2019-04-20T09:29:12.579Z,43.10
2019-04-20T09:31:47.122Z,41.40
2019-04-20T09:34:28.913Z,43.00
2019-04-20T09:37:01.129Z,41.70
2019-04-20T09:40:12.357Z,44.00
2019-04-20T09:42:38.058Z,46.70
2019-04-20T09:45:19.813Z,43.70
2019-04-20T09:47:45.894Z,42.40
2019-04-20T09:50:29.219Z,44.00
2019-04-20T09:52:59.143Z,42.30
2019-04-20T09:55:53.538Z,42.60
2019-04-20T09:58:32.069Z,43.00
2019-04-20T10:01:03.349Z,43.10
2019-04-20T10:03:18.861Z,43.20
2019-04-20T10:05:47.558Z,41.70
2019-04-20T10:08:15.956Z,41.40
2019-04-20T10:10:45.943Z,40.70
2019-04-20T10:13:15.314Z,41.30
2019-04-20T10:15:53.177Z,41.70
2019-04-20T10:18:45.537Z,40.30
2019-04-20T10:21:15.845Z,41.90
2019-04-20T10:23:59.005Z,43.40
2019-04-20T10:26:27.160Z,40.30
2019-04-20T10:28:55.330Z,40.20
2019-04-20T10:31:24.528Z,37.70
2019-04-20T10:34:13.547Z,38.50
2019-04-20T10:37:04.170Z,38.10
2019-04-20T10:39:38.623Z,39.10
2019-04-20T10:42:26.297Z,39.10
2019-04-20T10:44:57.077Z,38.60
2019-04-20T10:47:25.253Z,40.20
2019-04-20T10:49:58.807Z,40.40
2019-04-20T10:52:47.739Z,42.20
2019-04-20T10:55:16.549Z,40.90
2019-04-20T10:57:46.583Z,42.50
2019-04-20T11:00:20.028Z,42.90
2019-04-20T11:02:50.487Z,43.00
2019-04-20T11:05:38.309Z,40.50
2019-04-20T11:08:06.604Z,41.10
2019-04-20T11:10:51.134Z,41.10
2019-04-20T11:13:05.366Z,41.10
2019-04-20T11:15:39.285Z,39.90
2019-04-20T11:18:07.508Z,40.00
2019-04-20T11:20:35.742Z,39.60
2019-04-20T11:23:06.629Z,39.00
2019-04-20T11:25:39.769Z,39.40
2019-04-20T11:28:08.295Z,39.90
2019-04-20T11:30:38.299Z,37.60
2019-04-20T11:33:26.087Z,35.90
2019-04-20T11:36:01.629Z,37.40
2019-04-20T11:38:49.375Z,37.70
2019-04-20T11:41:25.480Z,37.70
2019-04-20T11:43:49.506Z,36.80
2019-04-20T11:46:18.623Z,37.40
2019-04-20T11:48:47.612Z,37.60
2019-04-20T11:51:15.873Z,37.00
2019-04-20T11:53:46.142Z,37.10
2019-04-20T11:56:22.455Z,36.30
2019-04-20T11:58:47.025Z,36.40
2019-04-20T12:01:44.079Z,35.80
2019-04-20T12:04:18.743Z,34.50
2019-04-20T12:06:38.865Z,33.60
2019-04-20T12:09:17.326Z,33.80
2019-04-20T12:11:59.640Z,34.80
2019-04-20T12:14:16.696Z,31.60
2019-04-20T12:16:47.838Z,33.20
2019-04-20T12:19:20.705Z,34.00
2019-04-20T12:21:49.659Z,34.40
2019-04-20T12:24:38.652Z,31.70
2019-04-20T12:27:07.034Z,31.50
2019-04-20T12:29:35.122Z,32.60
2019-04-20T12:32:19.613Z,31.10
2019-04-20T12:35:08.577Z,32.40
2019-04-20T12:37:36.958Z,32.80
2019-04-20T12:40:14.265Z,31.80
2019-04-20T12:42:44.955Z,31.20
2019-04-20T12:45:15.595Z,31.70
2019-04-20T12:47:48.213Z,31.40
2019-04-20T12:50:17.242Z,31.60
2019-04-20T12:52:46.233Z,27.90
2019-04-20T12:55:16.575Z,29.50
2019-04-20T12:57:46.930Z,29.90
2019-04-20T13:02:58.937Z,30.20
2019-04-20T13:05:27.720Z,29.50
2019-04-20T13:07:59.387Z,29.60
2019-04-20T13:10:27.522Z,30.50
2019-04-20T13:13:02.577Z,29.10
2019-04-20T13:16:00.516Z,30.00
2019-04-20T13:18:51.272Z,29.70
2019-04-20T13:21:39.172Z,30.70
2019-04-20T13:24:11.423Z,31.40
2019-04-20T13:26:40.675Z,31.40
2019-04-20T13:29:08.904Z,31.30
2019-04-20T13:31:37.954Z,31.10
2019-04-20T13:34:26.375Z,30.00
2019-04-20T13:37:00.065Z,30.20
2019-04-20T13:39:28.925Z,29.80
2019-04-20T13:42:22.905Z,30.40
2019-04-20T13:44:46.875Z,31.20
2019-04-20T13:47:16.845Z,29.60
2019-04-20T13:49:54.875Z,30.00
2019-04-20T13:52:23.076Z,29.60
2019-04-20T13:54:51.870Z,30.00
2019-04-20T13:57:28.181Z,28.50
2019-04-20T13:59:58.030Z,29.40
2019-04-20T14:02:36.631Z,29.10
2019-04-20T14:05:08.693Z,28.70
2019-04-20T14:07:39.588Z,30.30
2019-04-20T14:10:09.207Z,30.00
2019-04-20T14:12:48.805Z,30.20
2019-04-20T14:15:11.279Z,30.10
2019-04-20T14:17:39.504Z,30.00
2019-04-20T14:20:13.195Z,29.70
2019-04-20T14:22:41.010Z,29.70
2019-04-20T14:25:13.111Z,30.40
2019-04-20T14:27:42.584Z,30.70
2019-04-20T14:30:11.267Z,30.00
2019-04-20T14:32:39.330Z,29.40
2019-04-20T14:35:09.201Z,30.20
2019-04-20T14:37:45.951Z,30.00
2019-04-20T14:40:14.640Z,29.30
2019-04-20T14:42:49.477Z,28.80
2019-04-20T14:45:22.784Z,29.10
2019-04-20T14:47:51.918Z,29.00
2019-04-20T14:50:21.000Z,27.80
2019-04-20T14:52:49.362Z,27.60
2019-04-20T14:55:19.130Z,26.90
2019-04-20T14:57:47.808Z,27.20
2019-04-20T15:00:43.821Z,26.10
2019-04-20T15:03:30.363Z,26.10
2019-04-20T15:06:02.032Z,26.60
2019-04-20T15:08:32.483Z,26.60
2019-04-20T15:11:01.078Z,26.70
2019-04-20T15:13:31.402Z,24.80
2019-04-20T15:15:59.954Z,25.20
2019-04-20T15:18:33.603Z,25.70
2019-04-20T15:21:03.850Z,27.90
2019-04-20T15:23:33.195Z,25.10
2019-04-20T15:26:02.417Z,25.70
2019-04-20T15:28:30.802Z,24.80
2019-04-20T15:31:00.398Z,24.30
2019-04-20T15:33:28.678Z,24.60
2019-04-20T15:35:57.872Z,25.60
2019-04-20T15:38:27.139Z,24.30
2019-04-20T15:40:55.452Z,25.20
2019-04-20T15:43:27.477Z,25.60
2019-04-20T15:45:55.030Z,23.90
2019-04-20T15:48:23.855Z,23.70
2019-04-20T15:50:52.133Z,22.90
2019-04-20T15:53:21.802Z,23.40
2019-04-20T15:55:50.928Z,22.50
2019-04-20T15:58:20.615Z,23.60
2019-04-20T16:00:51.023Z,23.50
2019-04-20T16:03:29.644Z,22.90
2019-04-20T16:06:03.351Z,22.80
2019-04-20T16:08:38.848Z,23.40
2019-04-20T16:11:07.279Z,24.00
2019-04-20T16:13:39.582Z,22.70
2019-04-20T16:16:07.823Z,22.90
2019-04-20T16:18:36.996Z,23.50
2019-04-20T16:21:11.706Z,23.40
2019-04-20T16:24:01.247Z,23.80
2019-04-20T16:26:47.615Z,24.00
2019-04-20T16:29:15.820Z,23.10
2019-04-20T16:31:46.679Z,25.40
2019-04-20T16:34:15.567Z,26.20
2019-04-20T16:36:44.494Z,26.50
2019-04-20T16:39:14.288Z,26.90
2019-04-20T16:41:42.726Z,26.80
2019-04-20T16:44:11.314Z,28.10
2019-04-20T16:46:40.661Z,28.40
2019-04-20T16:49:08.890Z,28.00
2019-04-20T16:51:38.845Z,28.50
2019-04-20T16:54:07.789Z,27.80
2019-04-20T16:56:37.018Z,28.80
2019-04-20T16:59:09.653Z,28.60
2019-04-20T17:01:35.689Z,28.40
2019-04-20T17:04:09.809Z,29.00
2019-04-20T17:06:36.014Z,29.70
2019-04-20T17:09:07.016Z,29.70
2019-04-20T17:11:36.228Z,29.80
2019-04-20T17:14:06.645Z,30.10
2019-04-20T17:16:35.521Z,30.20
2019-04-20T17:19:03.880Z,30.80
2019-04-20T17:21:32.549Z,30.90
2019-04-20T17:24:02.025Z,31.70
2019-04-20T17:26:40.963Z,31.70
2019-04-20T17:29:15.768Z,32.40
2019-04-20T17:32:13.697Z,32.80
2019-04-20T17:34:58.196Z,33.20
2019-04-20T17:37:12.930Z,33.30
2019-04-20T17:40:04.318Z,33.20
2019-04-20T17:42:25.156Z,33.30
2019-04-20T17:44:53.044Z,33.70
2019-04-20T17:47:31.412Z,33.50
2019-04-20T17:50:00.878Z,33.30
2019-04-20T17:52:35.068Z,33.30
2019-04-20T17:54:51.450Z,33.80
2019-04-20T17:57:19.737Z,34.50
2019-04-20T17:59:57.947Z,35.20
2019-04-20T18:02:45.973Z,35.50
2019-04-20T18:05:34.121Z,36.10
2019-04-20T18:08:06.347Z,35.30
2019-04-20T18:10:34.259Z,35.70
2019-04-20T18:12:47.718Z,35.80
2019-04-20T18:15:32.453Z,36.50
2019-04-20T18:18:23.995Z,37.00
2019-04-20T18:21:08.590Z,37.00
2019-04-20T18:23:41.433Z,37.70
2019-04-20T18:26:27.687Z,38.50
2019-04-20T18:28:59.211Z,38.70
2019-04-20T18:31:13.581Z,38.90
2019-04-20T18:33:42.529Z,39.20
2019-04-20T18:36:23.347Z,39.50
2019-04-20T18:38:54.259Z,40.00
2019-04-20T18:41:23.080Z,40.00
2019-04-20T18:43:50.458Z,39.60
2019-04-20T18:46:31.838Z,39.10
2019-04-20T18:49:08.654Z,39.40
2019-04-20T18:51:15.487Z,39.60
2019-04-20T18:53:46.918Z,39.20
2019-04-20T18:56:19.026Z,39.70
2019-04-20T18:58:45.127Z,39.10
2019-04-20T19:01:14.734Z,37.90
2019-04-20T19:03:45.724Z,38.00
2019-04-20T19:06:14.152Z,39.00
2019-04-20T19:08:46.945Z,38.50
2019-04-20T19:11:17.751Z,38.00
2019-04-20T19:13:49.245Z,38.50
2019-04-20T19:16:49.602Z,38.80
2019-04-20T19:19:23.384Z,39.10
2019-04-20T19:21:41.550Z,39.20
2019-04-20T19:24:14.249Z,39.60
2019-04-20T19:26:47.916Z,38.80
2019-04-20T19:29:20.000Z,39.20
2019-04-20T19:31:56.927Z,38.60
2019-04-20T19:34:30.908Z,38.30
2019-04-20T19:36:58.156Z,38.30
2019-04-20T19:39:27.509Z,38.70
2019-04-20T19:41:51.734Z,39.00
2019-04-20T19:44:24.084Z,39.20
2019-04-20T19:47:05.378Z,39.80
2019-04-20T19:49:25.054Z,40.00
2019-04-20T19:52:13.629Z,40.10
2019-04-20T19:54:38.742Z,40.80
2019-04-20T19:56:58.526Z,40.60
2019-04-20T19:59:23.340Z,41.00
2019-04-20T20:01:42.321Z,41.10
2019-04-20T20:04:11.889Z,41.70
2019-04-20T20:06:46.026Z,42.40
2019-04-20T20:09:12.872Z,42.20
2019-04-20T20:11:44.446Z,42.40
2019-04-20T20:14:13.473Z,42.60
2019-04-20T20:16:59.822Z,42.70
2019-04-20T20:19:27.821Z,43.00
2019-04-20T20:22:00.392Z,43.50
2019-04-20T20:24:14.279Z,43.70
2019-04-20T20:26:50.572Z,44.20
2019-04-20T20:29:22.851Z,44.30
2019-04-20T20:32:01.434Z,44.40
2019-04-20T20:34:21.922Z,44.30
2019-04-20T20:36:47.322Z,44.80
2019-04-20T20:39:20.009Z,45.10
2019-04-20T20:41:52.885Z,45.50
2019-04-20T20:44:26.495Z,45.60
2019-04-20T20:46:55.905Z,45.90
2019-04-20T20:49:33.237Z,46.00
2019-04-20T20:52:05.862Z,46.50
2019-04-20T20:54:29.530Z,46.70
2019-04-20T20:56:49.958Z,46.60
2019-04-20T20:59:26.653Z,46.70
2019-04-20T21:01:52.433Z,46.70
2019-04-20T21:04:15.291Z,47.00
2019-04-20T21:06:44.630Z,47.20
2019-04-20T21:09:14.321Z,47.10
2019-04-20T21:11:44.484Z,47.10
2019-04-20T21:14:19.889Z,47.50
2019-04-20T21:16:54.669Z,47.60
2019-04-20T21:19:25.746Z,47.70
2019-04-20T21:21:50.375Z,47.80
2019-04-20T21:24:23.679Z,48.00
2019-04-20T21:26:53.846Z,48.20
2019-04-20T21:29:31.750Z,48.30
2019-04-20T21:31:59.917Z,48.70
2019-04-20T21:34:23.680Z,48.70
2019-04-20T21:36:55.308Z,49.10
2019-04-20T21:39:34.602Z,49.10
2019-04-20T21:41:57.242Z,49.30
2019-04-20T21:44:28.694Z,49.80
2019-04-20T21:46:54.593Z,49.70
2019-04-20T21:49:36.467Z,49.90
2019-04-20T21:51:58.582Z,49.80
2019-04-20T21:54:22.340Z,49.80
2019-04-20T21:56:57.152Z,50.00
2019-04-20T21:59:27.301Z,50.60
2019-04-20T22:01:58.487Z,50.60
2019-04-20T22:04:22.971Z,50.40
2019-04-20T22:06:52.024Z,50.40
2019-04-20T22:09:20.425Z,50.50
2019-04-20T22:11:51.808Z,50.40
2019-04-20T22:14:24.222Z,50.30
2019-04-20T22:16:53.280Z,50.40
2019-04-20T22:19:30.678Z,50.70
2019-04-20T22:22:03.346Z,50.70
2019-04-20T22:24:40.290Z,51.10
2019-04-20T22:27:03.090Z,51.20
2019-04-20T22:29:21.606Z,51.30
2019-04-20T22:31:56.436Z,51.40
2019-04-20T22:34:23.838Z,51.30
2019-04-20T22:36:50.569Z,51.40
2019-04-20T22:39:31.351Z,51.70
2019-04-20T22:42:00.233Z,52.00
2019-04-20T22:44:28.323Z,52.20
2019-04-20T22:46:56.326Z,52.50
2019-04-20T22:49:42.074Z,52.80
2019-04-20T22:52:02.783Z,53.00
2019-04-20T22:54:39.702Z,53.50
2019-04-20T22:57:05.958Z,53.30
2019-04-20T22:59:39.775Z,53.50
2019-04-20T23:02:00.573Z,53.80
2019-04-20T23:04:26.914Z,53.80
2019-04-20T23:06:55.845Z,54.30
2019-04-20T23:09:26.671Z,54.20
2019-04-20T23:12:03.599Z,54.40
2019-04-20T23:14:24.937Z,54.50
2019-04-20T23:16:55.569Z,54.70
2019-04-20T23:19:35.703Z,55.10
2019-04-20T23:21:59.739Z,55.50
2019-04-20T23:24:23.710Z,55.10
2019-04-20T23:26:53.169Z,55.30
2019-04-20T23:29:27.161Z,55.30
2019-04-20T23:31:57.441Z,55.50
2019-04-20T23:34:25.512Z,55.50
2019-04-20T23:36:52.557Z,56.10
2019-04-20T23:39:23.294Z,56.40
2019-04-20T23:41:57.039Z,56.50
2019-04-20T23:44:31.493Z,56.60
2019-04-20T23:47:19.787Z,56.90
2019-04-20T23:50:08.602Z,56.80
2019-04-20T23:52:43.144Z,58.30
2019-04-20T23:54:58.115Z,58.40
2019-04-20T23:57:21.843Z,58.40
2019-04-20T23:59:53.765Z,58.60
